Time;durP1;ratioP1;P1;durP2;ratioP2;P2;SDS_P1;SDS_P2;PMS_P1;PMS_P2;Temp;Humidity;BMP_temperature;BMP_pressure;BME280_temperature;BME280_humidity;BME280_pressure;Samples;Min_cycle;Max_cycle;Signal;HPM_P1;HPM_P2
2021/08/15 00:01:25;;;;;;;;;;;;;;;;;;5037436;28;19932;-91
2021/08/15 00:03:53;;;;;;;;;;;;;;;;;;5021399;28;19925;-91
2021/08/15 00:06:23;;;;;;;;;;;;;;;;;;5021086;28;19925;-91
2021/08/15 00:08:53;;;;;;;;;;;;;;;;;;5020896;28;19925;-92
2021/08/15 00:11:21;;;;;;;;;;;;;;;;;;5019667;28;20415;-90
2021/08/15 00:13:49;;;;;;;;;;;;;;;;;;5038151;28;19926;-90
2021/08/15 00:16:18;;;;;;;;;;;;;;;;;;5037872;28;19925;-91
2021/08/15 00:18:46;;;;;;;;;;;;;;;;;;5038243;28;19925;-90
2021/08/15 00:21:15;;;;;;;;;;;;;;;;;;5037306;28;19925;-91
2021/08/15 00:23:43;;;;;;;;;;;;;;;;;;5038049;28;19925;-91
2021/08/15 00:26:12;;;;;;;;;;;;;;;;;;5024149;28;19932;-90
2021/08/15 00:28:41;;;;;;;;;;;;;;;;;;5039576;28;19932;-90
2021/08/15 00:31:09;;;;;;;;;;;;;;;;;;5038272;28;19932;-92
2021/08/15 00:33:37;;;;;;;;;;;;;;;;;;5037562;28;19933;-91
2021/08/15 00:36:07;;;;;;;;;;;;;;;;;;5038494;28;19926;-92
2021/08/15 00:38:35;;;;;;;;;;;;;;;;;;5038228;28;19948;-91
2021/08/15 00:41:03;;;;;;;;;;;;;;;;;;5039775;28;19992;-91
2021/08/15 00:43:33;;;;;;;;;;;;;;;;;;5018688;28;19925;-91
2021/08/15 00:46:07;;;;;;;;;;;;;;;;;;5035710;28;19925;-91
2021/08/15 00:48:35;;;;;;;;;;;;;;;;;;5038484;28;20131;-90
2021/08/15 00:51:04;;;;;;;;;;;;;;;;;;5036197;28;19925;-90
2021/08/15 00:53:33;;;;;;;;;;;;;;;;;;5037828;28;19925;-91
2021/08/15 00:56:02;;;;;;;;;;;;;;;;;;5037155;28;20303;-90
2021/08/15 00:58:31;;;;;;;;;;;;;;;;;;5019018;28;19933;-89
2021/08/15 01:01:01;;;;;;;;;;;;;;;;;;5055434;28;19931;-91
2021/08/15 01:03:30;;;;;;;;;;;;;;;;;;5037116;28;19925;-91
2021/08/15 01:05:58;;;;;;;;;;;;;;;;;;5036408;28;19925;-90
2021/08/15 01:08:26;;;;;;;;;;;;;;;;;;5039998;28;19925;-92
2021/08/15 01:10:55;;;;;;;;;;;;;;;;;;5002824;28;19932;-91
2021/08/15 01:13:23;;;;;;;;;;;;;;;;;;5037133;28;19925;-90
2021/08/15 01:15:53;;;;;;;;;;;;;;;;;;5002704;28;19926;-91
2021/08/15 01:18:23;;;;;;;;;;;;;;;;;;5033646;28;19926;-89
2021/08/15 01:20:56;;;;;;;;;;;;;;;;;;5015119;28;19930;-90
2021/08/15 01:23:24;;;;;;;;;;;;;;;;;;5015243;28;19926;-91
2021/08/15 01:25:53;;;;;;;;;;;;;;;;;;5031876;28;20413;-89
2021/08/15 01:28:22;;;;;;;;;;;;;;;;;;5000172;28;19939;-91
2021/08/15 01:30:51;;;;;;;;;;;;;;;;;;5001367;28;19936;-91
2021/08/15 01:33:27;;;;;;;;;;;;;;;;;;4997588;28;19929;-89
2021/08/15 01:35:55;;;;;;;;;;;;;;;;;;5003053;28;19929;-91
2021/08/15 01:38:25;;;;;;;;;;;;;;;;;;5012440;28;19933;-89
2021/08/15 01:40:53;;;;;;;;;;;;;;;;;;5014194;28;19933;-92
2021/08/15 01:43:23;;;;;;;;;;;;;;;;;;5012687;28;19926;-91
2021/08/15 01:45:51;;;;;;;;;;;;;;;;;;5004088;28;19926;-89
2021/08/15 01:48:19;;;;;;;;;;;;;;;;;;4980924;28;19926;-89
2021/08/15 01:50:48;;;;;;;;;;;;;;;;;;5008397;28;19933;-91
2021/08/15 01:53:17;;;;;;;;;;;;;;;;;;5011519;28;19926;-90
2021/08/15 01:55:46;;;;;;;;;;;;;;;;;;5009515;28;19933;-90
2021/08/15 01:58:15;;;;;;;;;;;;;;;;;;4980356;28;19933;-90
2021/08/15 02:00:45;;;;;;;;;;;;;;;;;;5002617;28;19933;-90
2021/08/15 02:03:13;;;;;;;;;;;;;;;;;;5014363;28;19932;-90
2021/08/15 02:05:42;;;;;;;;;;;;;;;;;;5032116;28;20409;-89
2021/08/15 02:08:11;;;;;;;;;;;;;;;;;;5012963;28;19930;-91
2021/08/15 02:10:39;;;;;;;;;;;;;;;;;;4999569;28;19933;-90
2021/08/15 02:13:08;;;;;;;;;;;;;;;;;;5032309;28;19925;-90
2021/08/15 02:15:36;;;;;;;;;;;;;;;;;;5027003;28;20306;-88
2021/08/15 02:18:06;;;;;;;;;;;;;;;;;;5026786;28;19929;-91
2021/08/15 02:20:34;;;;;;;;;;;;;;;;;;5026328;28;19926;-89
2021/08/15 02:23:02;;;;;;;;;;;;;;;;;;5029041;28;19930;-92
2021/08/15 02:25:31;;;;;;;;;;;;;;;;;;5011813;28;19926;-91
2021/08/15 02:27:59;;;;;;;;;;;;;;;;;;5025675;28;19933;-92
2021/08/15 02:30:27;;;;;;;;;;;;;;;;;;4997706;28;19925;-91
2021/08/15 02:32:56;;;;;;;;;;;;;;;;;;5009039;28;19952;-91
2021/08/15 02:35:31;;;;;;;;;;;;;;;;;;5028389;28;19933;-93
2021/08/15 02:37:59;;;;;;;;;;;;;;;;;;4993705;28;19934;-91
2021/08/15 02:40:28;;;;;;;;;;;;;;;;;;5012148;28;19926;-89
2021/08/15 02:42:56;;;;;;;;;;;;;;;;;;4996732;28;20309;-94
2021/08/15 02:45:24;;;;;;;;;;;;;;;;;;5029570;28;19930;-90
2021/08/15 02:47:53;;;;;;;;;;;;;;;;;;5012160;28;19925;-89
2021/08/15 02:50:22;;;;;;;;;;;;;;;;;;5026396;28;20412;-89
2021/08/15 02:52:51;;;;;;;;;;;;;;;;;;5012957;28;19936;-91
2021/08/15 02:55:20;;;;;;;;;;;;;;;;;;5028343;28;19936;-91
2021/08/15 02:57:48;;;;;;;;;;;;;;;;;;5017077;28;19933;-91
2021/08/15 03:00:17;;;;;;;;;;;;;;;;;;5029864;28;20332;-91
2021/08/15 03:02:45;;;;;;;;;;;;;;;;;;5033428;28;19929;-90
2021/08/15 03:05:13;;;;;;;;;;;;;;;;;;5017560;28;19926;-91
2021/08/15 03:07:41;;;;;;;;;;;;;;;;;;5018097;28;19925;-89
2021/08/15 03:10:12;;;;;;;;;;;;;;;;;;5014808;28;19933;-90
2021/08/15 03:12:40;;;;;;;;;;;;;;;;;;5001138;28;19929;-89
2021/08/15 03:15:09;;;;;;;;;;;;;;;;;;5033925;28;19925;-89
2021/08/15 03:17:37;;;;;;;;;;;;;;;;;;5005699;28;19928;-91
2021/08/15 03:20:06;;;;;;;;;;;;;;;;;;5000627;28;19925;-90
2021/08/15 03:22:34;;;;;;;;;;;;;;;;;;4999552;28;19925;-91
2021/08/15 03:25:02;;;;;;;;;;;;;;;;;;5015899;28;19929;-89
2021/08/15 03:27:32;;;;;;;;;;;;;;;;;;5016288;28;19941;-91
2021/08/15 03:30:00;;;;;;;;;;;;;;;;;;5014946;28;19936;-93
2021/08/15 03:32:28;;;;;;;;;;;;;;;;;;5014698;28;19925;-91
2021/08/15 03:34:56;;;;;;;;;;;;;;;;;;5032106;28;19951;-91
2021/08/15 03:37:25;;;;;;;;;;;;;;;;;;5015750;28;20321;-89
2021/08/15 03:39:53;;;;;;;;;;;;;;;;;;5016672;28;19930;-89
2021/08/15 03:42:21;;;;;;;;;;;;;;;;;;5018231;28;19933;-91
2021/08/15 03:44:51;;;;;;;;;;;;;;;;;;5017033;28;19926;-90
2021/08/15 03:47:19;;;;;;;;;;;;;;;;;;5018032;28;19925;-90
2021/08/15 03:49:47;;;;;;;;;;;;;;;;;;5015697;28;19952;-92
2021/08/15 03:52:15;;;;;;;;;;;;;;;;;;5019087;28;19929;-90
2021/08/15 03:54:44;;;;;;;;;;;;;;;;;;5000680;28;19937;-89
2021/08/15 03:57:12;;;;;;;;;;;;;;;;;;5016631;28;20389;-89
2021/08/15 03:59:40;;;;;;;;;;;;;;;;;;5017187;28;19932;-89
2021/08/15 04:02:09;;;;;;;;;;;;;;;;;;5001706;28;19926;-89
2021/08/15 04:04:38;;;;;;;;;;;;;;;;;;4998839;28;19933;-91
2021/08/15 04:07:06;;;;;;;;;;;;;;;;;;5014547;28;19926;-90
2021/08/15 04:09:34;;;;;;;;;;;;;;;;;;5017822;28;19930;-90
2021/08/15 04:12:02;;;;;;;;;;;;;;;;;;5014309;28;19940;-89
2021/08/15 04:14:30;;;;;;;;;;;;;;;;;;5014987;28;20006;-90
2021/08/15 04:16:59;;;;;;;;;;;;;;;;;;4995596;28;19926;-89
2021/08/15 04:19:30;;;;;;;;;;;;;;;;;;5020911;28;19941;-91
2021/08/15 04:22:00;;;;;;;;;;;;;;;;;;5003720;28;20265;-90
2021/08/15 04:24:29;;;;;;;;;;;;;;;;;;5016062;28;20430;-91
2021/08/15 04:26:57;;;;;;;;;;;;;;;;;;5016165;28;19926;-91
2021/08/15 04:29:25;;;;;;;;;;;;;;;;;;5018064;28;19925;-91
2021/08/15 04:31:53;;;;;;;;;;;;;;;;;;5004225;28;19930;-91
2021/08/15 04:34:21;;;;;;;;;;;;;;;;;;5013095;28;19933;-92
2021/08/15 04:36:49;;;;;;;;;;;;;;;;;;4995000;28;19930;-90
2021/08/15 04:39:19;;;;;;;;;;;;;;;;;;5018381;28;19926;-90
2021/08/15 04:41:50;;;;;;;;;;;;;;;;;;5005135;28;19933;-90
2021/08/15 04:44:18;;;;;;;;;;;;;;;;;;5028858;28;19926;-90
2021/08/15 04:46:46;;;;;;;;;;;;;;;;;;5011196;28;19949;-90
2021/08/15 04:49:14;;;;;;;;;;;;;;;;;;4997796;28;19925;-91
2021/08/15 04:51:42;;;;;;;;;;;;;;;;;;4994139;28;20355;-90
2021/08/15 04:54:11;;;;;;;;;;;;;;;;;;5028551;28;19933;-90
2021/08/15 04:56:40;;;;;;;;;;;;;;;;;;5010767;28;20260;-91
2021/08/15 04:59:09;;;;;;;;;;;;;;;;;;4998736;28;19929;-90
2021/08/15 05:01:37;;;;;;;;;;;;;;;;;;5027840;28;19929;-90
2021/08/15 05:04:06;;;;;;;;;;;;;;;;;;5009661;28;19930;-93
2021/08/15 05:06:34;;;;;;;;;;;;;;;;;;5008347;28;19944;-91
2021/08/15 05:09:03;;;;;;;;;;;;;;;;;;5027270;28;19929;-90
2021/08/15 05:11:31;;;;;;;;;;;;;;;;;;5013352;28;19960;-89
2021/08/15 05:14:01;;;;;;;;;;;;;;;;;;5027947;28;19925;-91
2021/08/15 05:16:29;;;;;;;;;;;;;;;;;;4993914;28;19940;-91
2021/08/15 05:18:57;;;;;;;;;;;;;;;;;;4993702;28;19933;-90
2021/08/15 05:21:25;;;;;;;;;;;;;;;;;;5009770;28;19930;-91
2021/08/15 05:23:57;;;;;;;;;;;;;;;;;;5026036;28;19929;-91
2021/08/15 05:26:26;;;;;;;;;;;;;;;;;;5011438;28;19944;-91
2021/08/15 05:28:54;;;;;;;;;;;;;;;;;;5010993;28;19940;-88
2021/08/15 05:31:23;;;;;;;;;;;;;;;;;;5010493;28;20387;-91
2021/08/15 05:33:52;;;;;;;;;;;;;;;;;;5014403;28;19925;-91
2021/08/15 05:36:20;;;;;;;;;;;;;;;;;;4994474;28;19941;-92
2021/08/15 05:38:48;;;;;;;;;;;;;;;;;;5010504;28;19929;-91
2021/08/15 05:41:16;;;;;;;;;;;;;;;;;;5012239;28;20389;-91
2021/08/15 05:43:45;;;;;;;;;;;;;;;;;;5006943;28;20013;-91
2021/08/15 05:46:13;;;;;;;;;;;;;;;;;;5007229;28;19925;-90
2021/08/15 05:48:43;;;;;;;;;;;;;;;;;;5007509;28;19933;-90
2021/08/15 05:51:11;;;;;;;;;;;;;;;;;;5009444;28;19948;-91
2021/08/15 05:53:40;;;;;;;;;;;;;;;;;;5020905;28;19933;-89
2021/08/15 05:56:08;;;;;;;;;;;;;;;;;;5032263;28;19933;-90
2021/08/15 05:58:36;;;;;;;;;;;;;;;;;;5032553;28;19936;-90
2021/08/15 06:01:04;;;;;;;;;;;;;;;;;;5009185;28;19925;-90
2021/08/15 06:03:32;;;;;;;;;;;;;;;;;;4985220;28;19929;-90
2021/08/15 06:06:04;;;;;;;;;;;;;;;;;;5004471;28;19929;-91
2021/08/15 06:08:32;;;;;;;;;;;;;;;;;;5026069;28;19932;-92
2021/08/15 06:11:03;;;;;;;;;;;;;;;;;;5008514;28;20302;-92
2021/08/15 06:13:31;;;;;;;;;;;;;;;;;;5027478;28;19929;-92
2021/08/15 06:15:59;;;;;;;;;;;;;;;;;;5010113;28;19926;-92
2021/08/15 06:18:28;;;;;;;;;;;;;;;;;;5023232;28;19926;-91
2021/08/15 06:20:56;;;;;;;;;;;;;;;;;;5004557;28;19949;-92
2021/08/15 06:23:26;;;;;;;;;;;;;;;;;;5011591;28;19929;-92
2021/08/15 06:25:54;;;;;;;;;;;;;;;;;;4992332;28;19938;-92
2021/08/15 06:28:22;;;;;;;;;;;;;;;;;;5033608;28;19925;-91
2021/08/15 06:30:50;;;;;;;;;;;;;;;;;;5014593;28;19925;-93
2021/08/15 06:33:18;;;;;;;;;;;;;;;;;;5012225;28;19929;-92
2021/08/15 06:35:46;;;;;;;;;;;;;;;;;;5030073;28;19933;-94
2021/08/15 06:38:15;;;;;;;;;;;;;;;;;;4995430;28;20250;-94
2021/08/15 06:40:44;;;;;;;;;;;;;;;;;;5010572;28;19929;-92
2021/08/15 06:43:13;;;;;;;;;;;;;;;;;;4991717;28;19932;-92
2021/08/15 06:45:42;;;;;;;;;;;;;;;;;;5030737;28;20393;-91
2021/08/15 06:48:11;;;;;;;;;;;;;;;;;;5037129;28;19926;-94
2021/08/15 06:50:40;;;;;;;;;;;;;;;;;;5010543;28;19941;-92
2021/08/15 06:53:08;;;;;;;;;;;;;;;;;;5008693;28;19925;-93
2021/08/15 06:55:36;;;;;;;;;;;;;;;;;;4991034;28;20415;-92
2021/08/15 06:58:06;;;;;;;;;;;;;;;;;;5014566;28;19925;-93
2021/08/15 07:00:34;;;;;;;;;;;;;;;;;;5029453;28;19925;-93
2021/08/15 07:03:03;;;;;;;;;;;;;;;;;;4999656;28;19930;-93
2021/08/15 07:05:32;;;;;;;;;;;;;;;;;;5001586;28;19926;-94
2021/08/15 07:08:01;;;;;;;;;;;;;;;;;;4999865;28;19925;-92
2021/08/15 07:10:35;;;;;;;;;;;;;;;;;;5001593;28;19934;-95
2021/08/15 07:13:06;;;;;;;;;;;;;;;;;;4999684;28;19941;-92
2021/08/15 07:15:34;;;;;;;;;;;;;;;;;;5007300;28;20420;-92
2021/08/15 07:18:03;;;;;;;;;;;;;;;;;;4999067;28;19929;-91
2021/08/15 07:20:31;;;;;;;;;;;;;;;;;;4994725;28;19940;-92
2021/08/15 07:22:59;;;;;;;;;;;;;;;;;;5013500;28;20309;-90
2021/08/15 07:25:29;;;;;;;;;;;;;;;;;;5011704;28;19934;-90
2021/08/15 07:27:57;;;;;;;;;;;;;;;;;;5012630;28;19929;-90
2021/08/15 07:30:27;;;;;;;;;;;;;;;;;;5001342;28;19929;-90
2021/08/15 07:33:15;;;;;;;;;;;;;;;;;;;;;
2021/08/15 07:36:32;;;;;;;;;;;;;;;;;;5005164;28;19929;-91
2021/08/15 07:39:15;;;;;;;;;;;;;;;;;;5016287;28;19929;-91
2021/08/15 07:41:53;;;;;;;;;;;;;;;;;;5013984;28;19940;-91
2021/08/15 07:44:23;;;;;;;;;;;;;;;;;;4998751;28;19925;-91
2021/08/15 07:47:03;;;;;;;;;;;;;;;;;;5034076;28;19926;-90
2021/08/15 07:49:37;;;;;;;;;;;;;;;;;;5003833;28;19933;-91
2021/08/15 07:52:05;;;;;;;;;;;;;;;;;;5030808;28;19931;-92
2021/08/15 07:54:34;;;;;;;;;;;;;;;;;;4999131;28;19933;-92
2021/08/15 07:57:02;;;;;;;;;;;;;;;;;;5013351;28;19929;-90
2021/08/15 07:59:30;;;;;;;;;;;;;;;;;;5008651;28;20305;-91
2021/08/15 08:02:00;;;;;;;;;;;;;;;;;;4996197;28;19930;-92
2021/08/15 08:04:29;;;;;;;;;;;;;;;;;;5012695;28;19933;-93
2021/08/15 08:07:02;;;;;;;;;;;;;;;;;;5013675;28;19936;-93
2021/08/15 08:09:30;;;;;;;;;;;;;;;;;;5013399;28;19925;-93
2021/08/15 08:11:58;;;;;;;;;;;;;;;;;;5009759;28;19951;-92
2021/08/15 08:14:27;;;;;;;;;;;;;;;;;;4996351;28;20333;-93
2021/08/15 08:16:55;;;;;;;;;;;;;;;;;;5013064;28;19932;-92
2021/08/15 08:19:25;;;;;;;;;;;;;;;;;;4999266;28;19936;-90
2021/08/15 08:21:53;;;;;;;;;;;;;;;;;;5028275;28;20329;-93
2021/08/15 08:24:21;;;;;;;;;;;;;;;;;;5002680;28;19932;-90
2021/08/15 08:26:49;;;;;;;;;;;;;;;;;;5017566;28;19936;-91
2021/08/15 08:29:18;;;;;;;;;;;;;;;;;;5001387;28;19925;-91
2021/08/15 08:31:46;;;;;;;;;;;;;;;;;;5030906;28;19932;-91
2021/08/15 08:34:14;;;;;;;;;;;;;;;;;;5011702;28;19933;-90
2021/08/15 08:36:44;;;;;;;;;;;;;;;;;;5014712;28;19933;-90
2021/08/15 08:39:12;;;;;;;;;;;;;;;;;;5012545;28;19940;-89
2021/08/15 08:41:40;;;;;;;;;;;;;;;;;;4999663;28;20410;-89
2021/08/15 08:44:09;;;;;;;;;;;;;;;;;;5004393;28;19925;-89
2021/08/15 08:46:37;;;;;;;;;;;;;;;;;;4999115;28;19925;-90
2021/08/15 08:49:05;;;;;;;;;;;;;;;;;;5016724;28;19933;-89
2021/08/15 08:51:34;;;;;;;;;;;;;;;;;;5021002;28;19932;-89
2021/08/15 08:54:22;;;;;;;;;;;;;;;;;;4998540;28;19925;-88
2021/08/15 08:56:51;;;;;;;;;;;;;;;;;;5019924;28;20263;-88
2021/08/15 08:59:19;;;;;;;;;;;;;;;;;;5017749;28;19925;-90
2021/08/15 09:01:47;;;;;;;;;;;;;;;;;;5001475;28;20400;-91
2021/08/15 09:04:16;;;;;;;;;;;;;;;;;;5010908;28;19948;-88
2021/08/15 09:06:44;;;;;;;;;;;;;;;;;;5015453;28;20316;-89
2021/08/15 09:09:13;;;;;;;;;;;;;;;;;;5014051;28;20385;-89
2021/08/15 09:11:43;;;;;;;;;;;;;;;;;;5013283;28;19926;-89
2021/08/15 09:14:12;;;;;;;;;;;;;;;;;;4993211;28;19925;-88
2021/08/15 09:16:51;;;;;;;;;;;;;;;;;;5019277;28;19933;-89
2021/08/15 09:19:37;;;;;;;;;;;;;;;;;;4998241;28;19925;-87
2021/08/15 09:22:19;;;;;;;;;;;;;;;;;;5024751;28;19937;-88
2021/08/15 09:24:51;;;;;;;;;;;;;;;;;;5030145;28;22152;-88
2021/08/15 09:27:31;;;;;;;;;;;;;;;;;;4999936;28;19925;-89
2021/08/15 09:30:10;;;;;;;;;;;;;;;;;;5011863;28;19933;-89
2021/08/15 09:32:39;;;;;;;;;;;;;;;;;;5033240;28;20127;-87
2021/08/15 09:35:08;;;;;;;;;;;;;;;;;;4996542;28;19934;-90
2021/08/15 09:37:37;;;;;;;;;;;;;;;;;;5018922;28;20313;-90
2021/08/15 09:40:23;;;;;;;;;;;;;;;;;;5015391;28;19934;-88
2021/08/15 09:42:53;;;;;;;;;;;;;;;;;;5023220;28;20309;-88
2021/08/15 09:45:44;;;;;;;;;;;;;;;;;;5011001;28;19929;-88
2021/08/15 09:48:16;;;;;;;;;;;;;;;;;;5013987;28;19930;-88
2021/08/15 09:50:45;;;;;;;;;;;;;;;;;;5016213;28;20384;-88
2021/08/15 09:53:23;;;;;;;;;;;;;;;;;;5028413;28;19955;-89
2021/08/15 09:55:51;;;;;;;;;;;;;;;;;;5029877;28;19930;-88
2021/08/15 09:58:21;;;;;;;;;;;;;;;;;;5012567;28;19929;-88
2021/08/15 10:00:50;;;;;;;;;;;;;;;;;;5028013;28;19932;-90
2021/08/15 10:03:18;;;;;;;;;;;;;;;;;;5007561;28;19932;-88
2021/08/15 10:05:46;;;;;;;;;;;;;;;;;;5002333;28;19925;-87
2021/08/15 10:08:14;;;;;;;;;;;;;;;;;;5009696;28;19932;-88
2021/08/15 10:10:42;;;;;;;;;;;;;;;;;;5014287;28;19933;-86
2021/08/15 10:13:11;;;;;;;;;;;;;;;;;;5026729;28;21258;-87
2021/08/15 10:15:41;;;;;;;;;;;;;;;;;;5035554;28;19933;-90
2021/08/15 10:18:10;;;;;;;;;;;;;;;;;;5010543;28;19930;-89
2021/08/15 10:20:39;;;;;;;;;;;;;;;;;;5026452;28;20038;-87
2021/08/15 10:23:08;;;;;;;;;;;;;;;;;;5012045;28;19926;-87
2021/08/15 10:25:38;;;;;;;;;;;;;;;;;;5011101;28;20325;-87
2021/08/15 10:28:06;;;;;;;;;;;;;;;;;;5027445;28;19925;-86
2021/08/15 10:31:01;;;;;;;;;;;;;;;;;;5028531;28;19926;-86
2021/08/15 10:33:32;;;;;;;;;;;;;;;;;;4981954;28;19926;-86
2021/08/15 10:36:19;;;;;;;;;;;;;;;;;;5033554;28;20290;-90
2021/08/15 10:38:48;;;;;;;;;;;;;;;;;;5015430;28;19932;-86
2021/08/15 10:41:35;;;;;;;;;;;;;;;;;;5014634;28;19926;-86
2021/08/15 10:44:04;;;;;;;;;;;;;;;;;;4998300;28;19936;-86
2021/08/15 10:46:32;;;;;;;;;;;;;;;;;;5020474;28;19925;-88
2021/08/15 10:49:02;;;;;;;;;;;;;;;;;;5014787;28;19933;-86
2021/08/15 10:51:40;;;;;;;;;;;;;;;;;;5012467;28;19948;-86
2021/08/15 10:54:08;;;;;;;;;;;;;;;;;;5030318;28;19925;-87
2021/08/15 10:56:52;;;;;;;;;;;;;;;;;;5035097;28;19933;-87
2021/08/15 10:59:30;;;;;;;;;;;;;;;;;;5018171;28;19936;-88
2021/08/15 11:02:07;;;;;;;;;;;;;;;;;;4997613;28;19932;-89
2021/08/15 11:04:37;;;;;;;;;;;;;;;;;;5000496;28;19925;-86
2021/08/15 11:07:06;;;;;;;;;;;;;;;;;;5028217;28;19936;-88
2021/08/15 11:09:53;;;;;;;;;;;;;;;;;;5003459;28;19937;-88
2021/08/15 11:12:21;;;;;;;;;;;;;;;;;;5036410;28;19926;-91
2021/08/15 11:14:57;;;;;;;;;;;;;;;;;;5015308;28;19933;-88
2021/08/15 11:17:27;;;;;;;;;;;;;;;;;;5002518;28;19925;-89
2021/08/15 11:19:56;;;;;;;;;;;;;;;;;;5001839;28;20428;-88
2021/08/15 11:22:28;;;;;;;;;;;;;;;;;;5021116;28;19937;-88
2021/08/15 11:24:58;;;;;;;;;;;;;;;;;;5019790;28;19926;-89
2021/08/15 11:27:28;;;;;;;;;;;;;;;;;;5036117;28;19926;-91
2021/08/15 11:29:57;;;;;;;;;;;;;;;;;;5015557;28;19925;-88
2021/08/15 11:32:26;;;;;;;;;;;;;;;;;;5019374;28;19934;-90
2021/08/15 11:34:54;;;;;;;;;;;;;;;;;;5029560;28;19937;-89
2021/08/15 11:37:25;;;;;;;;;;;;;;;;;;5011521;28;19936;-90
2021/08/15 11:39:53;;;;;;;;;;;;;;;;;;5014098;28;20505;-90
2021/08/15 11:42:22;;;;;;;;;;;;;;;;;;5015361;28;19925;-89
2021/08/15 11:44:51;;;;;;;;;;;;;;;;;;5032221;28;19926;-90
2021/08/15 11:47:20;;;;;;;;;;;;;;;;;;5030093;28;19933;-90
2021/08/15 11:49:48;;;;;;;;;;;;;;;;;;5014848;28;20519;-89
2021/08/15 11:52:17;;;;;;;;;;;;;;;;;;5030846;28;19933;-91
2021/08/15 11:54:47;;;;;;;;;;;;;;;;;;4998681;28;19932;-91
2021/08/15 11:57:15;;;;;;;;;;;;;;;;;;4999812;28;20341;-90
2021/08/15 11:59:44;;;;;;;;;;;;;;;;;;5017488;28;19934;-90
2021/08/15 12:02:19;;;;;;;;;;;;;;;;;;5018428;28;19926;-89
2021/08/15 12:04:48;;;;;;;;;;;;;;;;;;5023972;28;19925;-89
2021/08/15 12:07:21;;;;;;;;;;;;;;;;;;5015080;28;19933;-89
2021/08/15 12:09:51;;;;;;;;;;;;;;;;;;5015730;28;19933;-89
2021/08/15 12:12:20;;;;;;;;;;;;;;;;;;5014422;28;19944;-89
2021/08/15 12:14:48;;;;;;;;;;;;;;;;;;5035299;28;19926;-88
2021/08/15 12:17:21;;;;;;;;;;;;;;;;;;5016737;28;20389;-91
2021/08/15 12:19:49;;;;;;;;;;;;;;;;;;4990945;28;19954;-89
2021/08/15 12:22:18;;;;;;;;;;;;;;;;;;5015585;28;19925;-89
2021/08/15 12:24:47;;;;;;;;;;;;;;;;;;5000260;28;19932;-88
2021/08/15 12:27:17;;;;;;;;;;;;;;;;;;4999798;28;19936;-89
2021/08/15 12:29:46;;;;;;;;;;;;;;;;;;5033085;28;19929;-88
2021/08/15 12:32:15;;;;;;;;;;;;;;;;;;4997570;28;20013;-89
2021/08/15 12:34:44;;;;;;;;;;;;;;;;;;5032393;28;19932;-89
2021/08/15 12:37:13;;;;;;;;;;;;;;;;;;4999409;28;19940;-90
2021/08/15 12:39:45;;;;;;;;;;;;;;;;;;5019861;28;19941;-88
2021/08/15 12:42:14;;;;;;;;;;;;;;;;;;5007694;28;19948;-88
2021/08/15 12:44:48;;;;;;;;;;;;;;;;;;5009044;28;19941;-88
2021/08/15 12:47:24;;;;;;;;;;;;;;;;;;5024478;28;19925;-85
2021/08/15 12:49:53;;;;;;;;;;;;;;;;;;5025857;28;19926;-87
2021/08/15 12:52:22;;;;;;;;;;;;;;;;;;5008676;28;19925;-87
2021/08/15 12:55:09;;;;;;;;;;;;;;;;;;4976443;28;19925;-88
2021/08/15 12:57:37;;;;;;;;;;;;;;;;;;5010045;28;20289;-86
2021/08/15 13:00:07;;;;;;;;;;;;;;;;;;5016316;28;19929;-85
2021/08/15 13:02:35;;;;;;;;;;;;;;;;;;5012039;28;19937;-86
2021/08/15 13:05:06;;;;;;;;;;;;;;;;;;5012174;28;19934;-86
2021/08/15 13:07:34;;;;;;;;;;;;;;;;;;5008757;28;19926;-87
2021/08/15 13:10:03;;;;;;;;;;;;;;;;;;5024675;28;19937;-88
2021/08/15 13:12:31;;;;;;;;;;;;;;;;;;5009839;28;20010;-88
2021/08/15 13:14:59;;;;;;;;;;;;;;;;;;5022594;28;19933;-88
2021/08/15 13:17:29;;;;;;;;;;;;;;;;;;5008757;28;20309;-88
2021/08/15 13:19:57;;;;;;;;;;;;;;;;;;5022633;28;19926;-89
2021/08/15 13:22:25;;;;;;;;;;;;;;;;;;4992008;28;20201;-88
2021/08/15 13:24:53;;;;;;;;;;;;;;;;;;5007304;28;20591;-88
2021/08/15 13:27:21;;;;;;;;;;;;;;;;;;5007836;28;19937;-86
2021/08/15 13:29:49;;;;;;;;;;;;;;;;;;5012134;28;19926;-89
2021/08/15 13:32:17;;;;;;;;;;;;;;;;;;5007154;28;19925;-87
2021/08/15 13:34:47;;;;;;;;;;;;;;;;;;5013067;28;19929;-88
2021/08/15 13:37:21;;;;;;;;;;;;;;;;;;5024005;28;19926;-88
2021/08/15 13:39:53;;;;;;;;;;;;;;;;;;5022552;28;19940;-90
2021/08/15 13:42:21;;;;;;;;;;;;;;;;;;5025273;28;20412;-88
2021/08/15 13:44:50;;;;;;;;;;;;;;;;;;4999254;28;19925;-88
2021/08/15 13:47:18;;;;;;;;;;;;;;;;;;5005721;28;20316;-90
2021/08/15 13:49:48;;;;;;;;;;;;;;;;;;5007375;28;19933;-88
2021/08/15 13:52:16;;;;;;;;;;;;;;;;;;4991158;28;20129;-88
2021/08/15 13:54:44;;;;;;;;;;;;;;;;;;5009158;28;19941;-89
2021/08/15 13:57:12;;;;;;;;;;;;;;;;;;5013739;28;19925;-88
2021/08/15 13:59:40;;;;;;;;;;;;;;;;;;5001442;28;19925;-89
2021/08/15 14:02:09;;;;;;;;;;;;;;;;;;4992631;28;19929;-89
2021/08/15 14:04:37;;;;;;;;;;;;;;;;;;5024917;28;19925;-88
2021/08/15 14:07:06;;;;;;;;;;;;;;;;;;5011348;28;20347;-88
2021/08/15 14:09:36;;;;;;;;;;;;;;;;;;5011989;28;19925;-88
2021/08/15 14:12:05;;;;;;;;;;;;;;;;;;5008059;28;19933;-89
2021/08/15 14:14:34;;;;;;;;;;;;;;;;;;5021811;28;20320;-89
2021/08/15 14:17:05;;;;;;;;;;;;;;;;;;5026910;28;20412;-90
2021/08/15 14:19:34;;;;;;;;;;;;;;;;;;5008427;28;19932;-88
2021/08/15 14:22:02;;;;;;;;;;;;;;;;;;5022793;28;19936;-87
2021/08/15 14:24:32;;;;;;;;;;;;;;;;;;4985958;28;19933;-89
2021/08/15 14:27:00;;;;;;;;;;;;;;;;;;4993780;28;19929;-89
2021/08/15 14:29:28;;;;;;;;;;;;;;;;;;5023122;28;19930;-88
2021/08/15 14:31:56;;;;;;;;;;;;;;;;;;4990822;28;19929;-90
2021/08/15 14:34:25;;;;;;;;;;;;;;;;;;5023462;28;19933;-89
2021/08/15 14:36:53;;;;;;;;;;;;;;;;;;5004361;28;19936;-89
2021/08/15 14:39:21;;;;;;;;;;;;;;;;;;4988971;28;19929;-89
2021/08/15 14:41:50;;;;;;;;;;;;;;;;;;5003778;28;20425;-89
2021/08/15 14:44:19;;;;;;;;;;;;;;;;;;5003434;28;19940;-89
2021/08/15 14:46:47;;;;;;;;;;;;;;;;;;5018697;28;19941;-89
2021/08/15 14:49:15;;;;;;;;;;;;;;;;;;5021186;28;19933;-88
2021/08/15 14:51:44;;;;;;;;;;;;;;;;;;5010373;28;20404;-88
2021/08/15 14:54:12;;;;;;;;;;;;;;;;;;5007225;28;19934;-89
2021/08/15 14:56:41;;;;;;;;;;;;;;;;;;5009962;28;19925;-88
2021/08/15 14:59:10;;;;;;;;;;;;;;;;;;5006770;28;19933;-89
2021/08/15 15:01:38;;;;;;;;;;;;;;;;;;5007243;28;19929;-90
2021/08/15 15:04:07;;;;;;;;;;;;;;;;;;5002217;28;19930;-90
2021/08/15 15:06:36;;;;;;;;;;;;;;;;;;5009689;28;19932;-89
2021/08/15 15:09:04;;;;;;;;;;;;;;;;;;5008777;28;19925;-88
2021/08/15 15:11:32;;;;;;;;;;;;;;;;;;5006801;28;19926;-88
2021/08/15 15:14:00;;;;;;;;;;;;;;;;;;4991711;28;19929;-89
2021/08/15 15:16:31;;;;;;;;;;;;;;;;;;5025299;28;19940;-89
2021/08/15 15:18:59;;;;;;;;;;;;;;;;;;5005441;28;21070;-89
2021/08/15 15:21:27;;;;;;;;;;;;;;;;;;4993887;28;19932;-89
2021/08/15 15:23:56;;;;;;;;;;;;;;;;;;5003301;28;19932;-89
2021/08/15 15:26:24;;;;;;;;;;;;;;;;;;5009675;28;20394;-89
2021/08/15 15:28:52;;;;;;;;;;;;;;;;;;5007900;28;19932;-90
2021/08/15 15:31:20;;;;;;;;;;;;;;;;;;5007287;28;19925;-89
2021/08/15 15:33:50;;;;;;;;;;;;;;;;;;4990757;28;19929;-88
2021/08/15 15:36:18;;;;;;;;;;;;;;;;;;5020743;28;19936;-89
2021/08/15 15:38:46;;;;;;;;;;;;;;;;;;5006649;28;19933;-89
2021/08/15 15:41:16;;;;;;;;;;;;;;;;;;4988992;28;19941;-89
2021/08/15 15:43:45;;;;;;;;;;;;;;;;;;4992641;28;19925;-88
2021/08/15 15:46:14;;;;;;;;;;;;;;;;;;5022036;28;19934;-89
2021/08/15 15:48:42;;;;;;;;;;;;;;;;;;4988922;28;19937;-90
2021/08/15 15:51:11;;;;;;;;;;;;;;;;;;5006833;28;19925;-90
2021/08/15 15:53:40;;;;;;;;;;;;;;;;;;5028820;28;20442;-91
2021/08/15 15:56:08;;;;;;;;;;;;;;;;;;5008287;28;20255;-90
2021/08/15 15:58:36;;;;;;;;;;;;;;;;;;4994313;28;20393;-89
2021/08/15 16:01:04;;;;;;;;;;;;;;;;;;4991535;28;19940;-91
2021/08/15 16:03:33;;;;;;;;;;;;;;;;;;5026536;28;19944;-92
2021/08/15 16:06:02;;;;;;;;;;;;;;;;;;5016475;28;19933;-91
2021/08/15 16:08:31;;;;;;;;;;;;;;;;;;5017451;28;19939;-91
2021/08/15 16:11:00;;;;;;;;;;;;;;;;;;4995094;28;19937;-90
2021/08/15 16:13:30;;;;;;;;;;;;;;;;;;5005557;28;19933;-91
2021/08/15 16:15:59;;;;;;;;;;;;;;;;;;4989961;28;20413;-90
2021/08/15 16:18:27;;;;;;;;;;;;;;;;;;5007026;28;19925;-91
2021/08/15 16:20:55;;;;;;;;;;;;;;;;;;5024292;28;19945;-90
2021/08/15 16:23:25;;;;;;;;;;;;;;;;;;4990528;28;20420;-91
2021/08/15 16:25:55;;;;;;;;;;;;;;;;;;5017065;28;19933;-91
2021/08/15 16:28:23;;;;;;;;;;;;;;;;;;5005279;28;19925;-90
2021/08/15 16:30:51;;;;;;;;;;;;;;;;;;4981160;28;19926;-90
2021/08/15 16:33:19;;;;;;;;;;;;;;;;;;4987694;28;20398;-89
2021/08/15 16:35:47;;;;;;;;;;;;;;;;;;5019703;28;19926;-90
2021/08/15 16:38:15;;;;;;;;;;;;;;;;;;5007451;28;19934;-91
2021/08/15 16:40:45;;;;;;;;;;;;;;;;;;5009149;28;19933;-91
2021/08/15 16:43:14;;;;;;;;;;;;;;;;;;5026354;28;20699;-91
2021/08/15 16:45:42;;;;;;;;;;;;;;;;;;5006696;28;19926;-91
2021/08/15 16:48:11;;;;;;;;;;;;;;;;;;5007290;28;19930;-91
2021/08/15 16:50:39;;;;;;;;;;;;;;;;;;5002211;28;19958;-91
2021/08/15 16:53:07;;;;;;;;;;;;;;;;;;4996632;28;19926;-90
2021/08/15 16:55:36;;;;;;;;;;;;;;;;;;5004696;28;20116;-89
2021/08/15 16:58:29;;;;;;;;;;;;;;;;;;5007498;28;19930;-91
2021/08/15 17:00:59;;;;;;;;;;;;;;;;;;5020320;28;19933;-91
2021/08/15 17:06:40;;;;;;;;;;;;;;;;;;4917154;29;19934;-92